Time;durP1;ratioP1;P1;durP2;ratioP2;P2;SDS_P1;SDS_P2;PMS_P1;PMS_P2;Temp;Humidity;BMP_temperature;BMP_pressure;BME280_temperature;BME280_humidity;BME280_pressure;Samples;Min_cycle;Max_cycle;Signal;HPM_P1;HPM_P2
2023/03/25 02:09:18;;;;;;;6.53;2.20;;;9.70;99.90;;;;;;7687301;28;20221;-92
2023/03/25 02:13:06;;;;;;;7.60;2.23;;;9.70;99.90;;;;;;7687242;28;20239;-92
2023/03/25 02:17:04;;;;;;;5.97;2.20;;;9.70;99.90;;;;;;7687507;28;20281;-92
2023/03/25 02:20:56;;;;;;;4.97;2.13;;;9.70;99.90;;;;;;7688495;28;20178;-92
2023/03/25 02:25:03;;;;;;;4.20;2.27;;;9.70;99.90;;;;;;7695702;28;20697;-92
2023/03/25 02:29:00;;;;;;;5.60;1.90;;;9.60;99.90;;;;;;7668723;29;20200;-92
2023/03/25 02:33:01;;;;;;;6.43;2.10;;;9.70;99.90;;;;;;7687959;28;20199;-92
2023/03/25 02:36:55;;;;;;;5.97;2.27;;;9.70;99.90;;;;;;7693817;28;20616;-92
2023/03/25 02:41:01;;;;;;;6.10;1.87;;;9.70;99.90;;;;;;7686716;29;20648;-92
2023/03/25 02:45:01;;;;;;;3.83;2.00;;;9.70;99.90;;;;;;7686388;28;20209;-91
2023/03/25 02:49:04;;;;;;;5.50;2.00;;;9.80;99.90;;;;;;7686299;29;20256;-92
2023/03/25 02:52:54;;;;;;;4.43;1.50;;;9.80;99.90;;;;;;7686718;28;20186;-92
2023/03/25 02:56:43;;;;;;;4.63;1.90;;;9.80;99.90;;;;;;7686113;29;20232;-91
2023/03/25 03:00:29;;;;;;;4.93;1.50;;;9.80;99.90;;;;;;7685882;28;20714;-92
2023/03/25 03:04:15;;;;;;;3.33;1.73;;;9.80;99.90;;;;;;7686318;28;20236;-93
2023/03/25 03:08:38;;;;;;;4.37;1.60;;;9.90;99.90;;;;;;7685763;28;20251;-92
2023/03/25 03:12:48;;;;;;;3.43;1.50;;;10.00;99.90;;;;;;7686164;29;20192;-92
2023/03/25 03:16:59;;;;;;;7.63;1.70;;;10.00;99.90;;;;;;7686060;29;20182;-91
2023/03/25 03:21:42;;;;;;;4.33;1.60;;;10.00;99.90;;;;;;7687274;28;20215;-92
2023/03/25 03:25:51;;;;;;;4.57;1.73;;;10.00;99.90;;;;;;7630070;29;20221;-92
2023/03/25 03:29:43;;;;;;;5.97;1.80;;;9.90;99.90;;;;;;7614747;29;20190;-92
2023/03/25 03:34:01;;;;;;;2.70;1.57;;;9.90;99.90;;;;;;7614384;29;20230;-92
2023/03/25 03:37:55;;;;;;;4.47;1.70;;;9.90;99.90;;;;;;7514354;29;20566;-92
2023/03/25 03:41:44;;;;;;;3.60;1.40;;;9.90;99.90;;;;;;7499051;29;20195;-92
2023/03/25 03:45:37;;;;;;;5.17;1.60;;;9.90;99.90;;;;;;7500528;29;20585;-93
2023/03/25 03:49:29;;;;;;;4.50;1.20;;;9.80;99.90;;;;;;7534861;29;20204;-91
2023/03/25 03:53:23;;;;;;;7.77;1.80;;;9.80;99.90;;;;;;7500300;29;20704;-91
2023/03/25 03:57:15;;;;;;;1.77;1.00;;;9.90;99.90;;;;;;7571251;29;20196;-92
2023/03/25 04:01:01;;;;;;;5.60;1.60;;;9.90;99.90;;;;;;7555136;29;20188;-91
2023/03/25 04:04:47;;;;;;;4.33;1.40;;;9.80;99.90;;;;;;7570581;29;20211;-92
2023/03/25 04:08:41;;;;;;;4.23;1.00;;;9.80;99.90;;;;;;7554565;29;20219;-92
2023/03/25 04:12:36;;;;;;;6.00;1.47;;;9.70;99.90;;;;;;7581797;29;20199;-92
2023/03/25 04:16:23;;;;;;;5.80;0.93;;;9.70;99.90;;;;;;7690287;28;20275;-92
2023/03/25 04:20:15;;;;;;;5.20;1.40;;;9.70;99.90;;;;;;7690348;29;20196;-91
2023/03/25 04:24:00;;;;;;;2.93;1.10;;;9.70;99.90;;;;;;7690061;28;20866;-92
2023/03/25 04:27:52;;;;;;;3.40;0.90;;;9.60;99.90;;;;;;7690079;28;20286;-92
2023/03/25 04:31:44;;;;;;;2.13;0.90;;;9.60;99.90;;;;;;7689836;28;20190;-92
2023/03/25 04:35:31;;;;;;;3.63;1.20;;;9.60;99.90;;;;;;7689762;28;20316;-91
2023/03/25 04:39:23;;;;;;;2.53;0.97;;;9.60;99.90;;;;;;7689631;28;20189;-92
2023/03/25 04:43:09;;;;;;;6.37;1.00;;;9.60;99.90;;;;;;7689547;28;20574;-92
2023/03/25 04:46:55;;;;;;;4.20;1.00;;;9.50;99.90;;;;;;7689403;28;20197;-92
2023/03/25 04:50:41;;;;;;;1.40;0.77;;;9.50;99.90;;;;;;7689561;28;20300;-92
2023/03/25 04:54:27;;;;;;;2.27;0.87;;;9.50;99.90;;;;;;7689408;28;20229;-91
2023/03/25 04:58:16;;;;;;;2.80;0.87;;;9.50;99.90;;;;;;7689504;28;20189;-92
2023/03/25 05:02:04;;;;;;;1.97;0.90;;;9.50;99.90;;;;;;7689768;29;20189;-92
2023/03/25 05:05:51;;;;;;;3.97;0.90;;;9.50;99.90;;;;;;7697189;28;20260;-91
2023/03/25 05:09:37;;;;;;;3.07;0.90;;;9.50;99.90;;;;;;7689023;29;20228;-92
2023/03/25 05:13:24;;;;;;;1.87;0.80;;;9.50;99.90;;;;;;7688673;28;20292;-91
2023/03/25 05:17:10;;;;;;;4.47;0.90;;;9.50;99.90;;;;;;7694017;28;20190;-91
2023/03/25 05:20:55;;;;;;;1.47;0.67;;;9.40;99.90;;;;;;7674239;28;20292;-90
2023/03/25 05:24:43;;;;;;;0.83;0.57;;;9.40;99.90;;;;;;7686698;28;20253;-91
2023/03/25 05:28:29;;;;;;;3.80;0.60;;;9.40;99.90;;;;;;7713617;28;20219;-91
2023/03/25 05:32:18;;;;;;;1.53;0.70;;;9.40;99.90;;;;;;7689529;28;20201;-89
2023/03/25 05:36:04;;;;;;;2.43;0.53;;;9.40;99.90;;;;;;7693786;28;20221;-91
2023/03/25 05:40:01;;;;;;;1.90;0.53;;;9.40;99.90;;;;;;7741910;28;20200;-91
2023/03/25 05:43:50;;;;;;;2.17;0.40;;;9.30;99.90;;;;;;7658741;29;20214;-91
2023/03/25 05:47:53;;;;;;;2.87;0.50;;;9.40;99.90;;;;;;7693014;28;20219;-90
2023/03/25 05:51:38;;;;;;;2.40;0.50;;;9.40;99.90;;;;;;7692611;28;20197;-92
2023/03/25 05:55:24;;;;;;;2.57;0.50;;;9.40;99.90;;;;;;7688319;28;20212;-91
2023/03/25 05:59:10;;;;;;;1.53;0.50;;;9.30;99.90;;;;;;7693772;28;20260;-91
2023/03/25 06:02:57;;;;;;;1.03;0.40;;;9.20;99.90;;;;;;7706670;28;20188;-91
2023/03/25 06:06:43;;;;;;;0.97;0.50;;;9.20;99.90;;;;;;7692159;28;20201;-90
2023/03/25 06:10:28;;;;;;;1.50;0.43;;;9.20;99.90;;;;;;7686680;28;20194;-90
2023/03/25 06:14:14;;;;;;;0.63;0.40;;;9.10;99.90;;;;;;7691151;28;20330;-84
2023/03/25 06:18:00;;;;;;;2.30;0.60;;;9.10;99.90;;;;;;7692967;28;20536;-86
2023/03/25 06:21:48;;;;;;;0.53;0.40;;;8.90;99.90;;;;;;7686903;28;20209;-90
2023/03/25 06:25:50;;;;;;;2.70;0.70;;;9.00;99.90;;;;;;7693773;28;20213;-92
2023/03/25 06:29:36;;;;;;;0.73;0.60;;;9.00;99.90;;;;;;7685090;28;20207;-91
2023/03/25 06:33:26;;;;;;;1.47;0.70;;;9.00;99.90;;;;;;7688218;28;20220;-91
2023/03/25 06:37:12;;;;;;;2.50;0.70;;;9.00;99.90;;;;;;7700377;28;20193;-90
2023/03/25 06:40:57;;;;;;;0.50;0.40;;;8.90;99.90;;;;;;7685330;28;20889;-90
2023/03/25 06:44:43;;;;;;;0.73;0.40;;;8.90;99.90;;;;;;7685170;28;20300;-91
2023/03/25 06:48:36;;;;;;;2.27;0.57;;;8.80;99.90;;;;;;7691218;28;20879;-91
2023/03/25 06:52:35;;;;;;;3.20;0.57;;;8.90;99.90;;;;;;7683246;28;20260;-90
2023/03/25 06:56:24;;;;;;;1.07;0.40;;;8.90;99.90;;;;;;7670572;28;20224;-90
2023/03/25 07:00:14;;;;;;;0.87;0.43;;;8.90;99.90;;;;;;7697164;28;20193;-91
2023/03/25 07:03:59;;;;;;;1.93;0.50;;;9.00;99.90;;;;;;7686817;28;20228;-90
2023/03/25 07:07:45;;;;;;;3.03;0.70;;;9.10;99.90;;;;;;7688954;28;20217;-92
2023/03/25 07:11:32;;;;;;;0.70;0.40;;;9.10;99.90;;;;;;7686600;28;20201;-91
2023/03/25 07:15:17;;;;;;;2.07;0.60;;;9.20;99.90;;;;;;7689444;28;20220;-91
2023/03/25 07:19:06;;;;;;;1.67;0.50;;;9.30;99.90;;;;;;7688680;28;20200;-90
2023/03/25 07:22:58;;;;;;;3.60;0.87;;;9.30;99.90;;;;;;7693321;28;20216;-90
2023/03/25 07:26:44;;;;;;;3.33;0.80;;;9.30;99.90;;;;;;7680009;28;21282;-90
2023/03/25 07:30:30;;;;;;;3.50;0.73;;;9.40;99.90;;;;;;7722076;28;20193;-91
2023/03/25 07:34:15;;;;;;;3.07;0.70;;;9.50;99.90;;;;;;7704221;28;20224;-91
2023/03/25 07:38:01;;;;;;;4.10;0.67;;;9.60;99.90;;;;;;7686193;28;20237;-90
2023/03/25 07:41:47;;;;;;;1.30;0.43;;;9.60;99.90;;;;;;7686678;29;20274;-90
2023/03/25 07:45:36;;;;;;;2.40;0.70;;;9.80;99.90;;;;;;7687088;28;20237;-91
2023/03/25 07:49:21;;;;;;;8.63;0.67;;;9.90;99.90;;;;;;7710383;28;20205;-92
2023/03/25 07:53:07;;;;;;;4.43;0.60;;;9.90;99.90;;;;;;7683196;28;20213;-92
2023/03/25 07:56:54;;;;;;;2.23;0.80;;;10.00;99.90;;;;;;7687422;28;20284;-91
2023/03/25 08:00:39;;;;;;;4.53;0.63;;;10.00;99.90;;;;;;7684985;28;20726;-91
2023/03/25 08:04:25;;;;;;;2.83;0.87;;;9.90;99.90;;;;;;7686680;28;20228;-90
2023/03/25 08:08:11;;;;;;;2.07;0.50;;;9.80;99.90;;;;;;7691250;28;20248;-91
2023/03/25 08:11:57;;;;;;;5.90;0.90;;;9.80;99.90;;;;;;7692553;28;20202;-91
2023/03/25 08:15:42;;;;;;;3.00;0.60;;;9.90;99.90;;;;;;7700719;28;20264;-91
2023/03/25 08:19:28;;;;;;;1.07;0.60;;;10.00;99.90;;;;;;7695958;28;20659;-91
2023/03/25 08:23:18;;;;;;;2.63;0.93;;;10.00;99.90;;;;;;7690149;29;20217;-92
2023/03/25 08:27:04;;;;;;;1.10;0.40;;;10.00;99.90;;;;;;7689106;28;20192;-91
2023/03/25 08:30:54;;;;;;;1.33;0.57;;;9.90;99.90;;;;;;7689575;28;20205;-89
2023/03/25 08:34:39;;;;;;;2.73;0.50;;;9.80;99.90;;;;;;7690678;28;20573;-89
2023/03/25 08:38:30;;;;;;;2.47;0.70;;;9.70;99.90;;;;;;7697956;28;20193;-91
2023/03/25 08:42:16;;;;;;;1.53;0.50;;;9.70;99.90;;;;;;7692995;28;20200;-91
2023/03/25 08:46:02;;;;;;;5.40;1.00;;;9.60;99.90;;;;;;7715734;28;20212;-90
2023/03/25 08:49:48;;;;;;;4.47;0.77;;;9.60;99.90;;;;;;7710061;28;20717;-91
2023/03/25 08:53:33;;;;;;;2.43;0.90;;;9.60;99.90;;;;;;7690081;29;20220;-91
2023/03/25 08:57:19;;;;;;;5.97;0.70;;;9.50;99.90;;;;;;7687081;29;20252;-91
2023/03/25 09:01:05;;;;;;;1.57;0.40;;;9.40;99.90;;;;;;7688487;28;20193;-90
2023/03/25 09:04:53;;;;;;;2.33;0.70;;;9.20;99.90;;;;;;7688323;28;20251;-91
2023/03/25 09:08:43;;;;;;;2.03;0.70;;;9.00;99.90;;;;;;7692886;29;20217;-91
2023/03/25 09:12:28;;;;;;;1.40;0.60;;;8.90;99.90;;;;;;7700272;28;20208;-92
2023/03/25 09:16:14;;;;;;;0.67;0.50;;;8.80;99.90;;;;;;7699323;28;20213;-91
2023/03/25 09:20:00;;;;;;;5.00;0.77;;;8.80;99.90;;;;;;7746612;28;20205;-90
2023/03/25 09:23:45;;;;;;;6.77;0.80;;;8.80;99.90;;;;;;7697853;28;20209;-91
2023/03/25 09:27:31;;;;;;;0.73;0.67;;;8.70;99.90;;;;;;7688580;28;20212;-91
2023/03/25 09:31:17;;;;;;;1.70;0.67;;;8.60;99.90;;;;;;7722598;28;20264;-85
2023/03/25 09:35:03;;;;;;;2.00;0.50;;;8.60;99.90;;;;;;7718707;28;20212;-91
2023/03/25 09:38:49;;;;;;;0.87;0.60;;;8.60;99.90;;;;;;7687570;28;20256;-86
2023/03/25 09:42:59;;;;;;;2.03;0.93;;;8.60;99.90;;;;;;7688795;29;20185;-91
2023/03/25 09:46:46;;;;;;;1.83;0.70;;;8.60;99.90;;;;;;7685673;29;20677;-91
2023/03/25 09:50:34;;;;;;;0.77;0.53;;;8.50;99.90;;;;;;7679735;29;20276;-91
2023/03/25 09:54:37;;;;;;;1.13;0.67;;;8.50;99.90;;;;;;7687033;28;20221;-92
2023/03/25 09:58:31;;;;;;;1.57;0.80;;;8.50;99.90;;;;;;7688898;28;20220;-91
2023/03/25 10:02:38;;;;;;;3.97;2.57;;;8.50;99.90;;;;;;7693508;28;20248;-91
2023/03/25 10:06:25;;;;;;;7.90;6.30;;;8.60;99.90;;;;;;7695891;28;20235;-88
2023/03/25 10:10:19;;;;;;;3.63;1.30;;;8.60;99.90;;;;;;7712653;28;20557;-88
2023/03/25 10:14:19;;;;;;;2.70;1.10;;;8.60;99.90;;;;;;7687412;28;20213;-89
2023/03/25 10:18:22;;;;;;;2.90;1.10;;;8.60;99.90;;;;;;7686876;29;20257;-88
2023/03/25 10:22:17;;;;;;;0.80;0.80;;;8.80;99.90;;;;;;7687114;28;20205;-89
2023/03/25 10:26:16;;;;;;;2.23;0.93;;;8.90;99.90;;;;;;7688539;28;20313;-91
2023/03/25 10:30:17;;;;;;;2.57;1.00;;;9.00;99.90;;;;;;7697546;28;20204;-91
2023/03/25 10:34:16;;;;;;;1.33;1.13;;;9.00;99.90;;;;;;7683011;28;20266;-91
2023/03/25 10:38:12;;;;;;;5.97;1.73;;;9.20;99.90;;;;;;7705181;28;20276;-91
2023/03/25 10:42:03;;;;;;;16.73;11.03;;;9.30;99.90;;;;;;7685258;28;20189;-92
2023/03/25 10:46:01;;;;;;;8.50;5.80;;;9.50;99.90;;;;;;7685666;28;20217;-91
2023/03/25 10:49:48;;;;;;;3.50;2.87;;;9.60;99.90;;;;;;7701922;28;20313;-91
2023/03/25 10:53:35;;;;;;;3.00;1.90;;;9.60;99.90;;;;;;7679945;28;20230;-91
2023/03/25 10:57:28;;;;;;;2.23;1.00;;;9.80;99.90;;;;;;7685119;28;20244;-91
2023/03/25 11:01:16;;;;;;;1.93;1.20;;;9.90;99.90;;;;;;7686653;28;20185;-91
2023/03/25 11:05:06;;;;;;;3.47;1.47;;;10.00;99.90;;;;;;7693840;28;20213;-91
2023/03/25 11:09:11;;;;;;;2.37;1.00;;;10.00;99.90;;;;;;7707605;28;20215;-89
2023/03/25 11:13:02;;;;;;;2.40;1.00;;;10.00;99.90;;;;;;7691357;28;20224;-91
2023/03/25 11:16:55;;;;;;;8.97;1.50;;;10.10;99.90;;;;;;7687223;28;20199;-86
2023/03/25 11:21:05;;;;;;;0.63;0.63;;;10.10;99.90;;;;;;7686606;29;20217;-84
2023/03/25 11:24:56;;;;;;;15.73;1.30;;;10.20;99.90;;;;;;7686494;28;20213;-85
2023/03/25 11:28:52;;;;;;;2.13;0.70;;;10.30;99.90;;;;;;7684198;28;20201;-82
2023/03/25 11:32:39;;;;;;;1.07;0.70;;;10.30;99.90;;;;;;7686283;28;20655;-85
2023/03/25 11:36:28;;;;;;;4.80;0.97;;;10.40;99.90;;;;;;7684235;28;20225;-91
2023/03/25 11:40:16;;;;;;;6.73;1.10;;;10.40;99.90;;;;;;7686101;28;20795;-84
2023/03/25 11:44:16;;;;;;;0.60;0.60;;;10.40;99.90;;;;;;7690673;28;20238;-92
2023/03/25 11:48:15;;;;;;;2.07;0.80;;;10.50;99.90;;;;;;7702037;28;20280;-91
2023/03/25 11:52:08;;;;;;;2.20;0.90;;;10.40;99.90;;;;;;7690790;29;20193;-91
2023/03/25 11:55:58;;;;;;;5.03;1.10;;;10.00;99.90;;;;;;7691312;28;20229;-89
2023/03/25 11:59:49;;;;;;;5.40;1.10;;;9.70;99.90;;;;;;7693661;28;20185;-89
2023/03/25 12:03:35;;;;;;;0.90;0.60;;;9.40;99.90;;;;;;7687867;28;20222;-88
2023/03/25 12:07:20;;;;;;;0.90;0.30;;;9.40;99.90;;;;;;7677032;29;20256;-87
2023/03/25 12:11:15;;;;;;;0.40;0.40;;;9.60;99.90;;;;;;7690238;28;20201;-86
2023/03/25 12:15:18;;;;;;;0.40;0.40;;;9.90;99.90;;;;;;7699071;28;20241;-82
2023/03/25 12:19:18;;;;;;;3.00;0.60;;;10.20;99.90;;;;;;7711497;28;20554;-89
2023/03/25 12:23:20;;;;;;;0.70;0.40;;;10.40;99.90;;;;;;7690197;28;20714;-87
2023/03/25 12:27:43;;;;;;;0.53;0.40;;;10.60;99.90;;;;;;7688697;29;20197;-87
2023/03/25 12:32:00;;;;;;;1.20;0.63;;;10.70;99.90;;;;;;7690389;29;20675;-87
2023/03/25 12:35:46;;;;;;;0.60;0.60;;;10.80;99.90;;;;;;7689334;28;20372;-88
2023/03/25 12:40:14;;;;;;;0.83;0.50;;;10.80;99.90;;;;;;7689446;29;20193;-87
2023/03/25 12:44:49;;;;;;;1.43;0.77;;;10.80;99.90;;;;;;7670429;29;20655;-87
2023/03/25 12:48:59;;;;;;;1.40;0.47;;;10.90;99.90;;;;;;7658571;29;20197;-88
2023/03/25 12:52:50;;;;;;;0.77;0.50;;;10.90;99.90;;;;;;7681995;28;20276;-86
2023/03/25 12:56:42;;;;;;;1.17;0.40;;;10.90;99.90;;;;;;7698877;28;20244;-87
2023/03/25 13:00:40;;;;;;;2.90;0.50;;;11.00;99.90;;;;;;7719251;28;20198;-88
2023/03/25 13:04:26;;;;;;;1.60;0.80;;;11.00;99.90;;;;;;7675005;29;20213;-87
2023/03/25 13:08:30;;;;;;;0.50;0.40;;;11.00;99.90;;;;;;7692365;28;20297;-87
2023/03/25 13:12:48;;;;;;;0.80;0.47;;;10.80;99.90;;;;;;7701484;29;20197;-87
2023/03/25 13:16:36;;;;;;;0.60;0.40;;;10.10;99.90;;;;;;7689393;29;20296;-86
2023/03/25 13:20:27;;;;;;;0.33;0.33;;;9.90;99.90;;;;;;7690657;28;20640;-87
2023/03/25 13:24:19;;;;;;;0.23;0.23;;;9.90;99.90;;;;;;7688786;28;20232;-87
2023/03/25 13:28:12;;;;;;;0.53;0.47;;;9.90;99.90;;;;;;7689278;29;20198;-87
2023/03/25 13:32:01;;;;;;;0.40;0.40;;;10.00;99.90;;;;;;7690303;29;20189;-87
2023/03/25 13:35:50;;;;;;;0.93;0.60;;;10.10;99.90;;;;;;7682889;29;20725;-87
2023/03/25 13:40:03;;;;;;;0.33;0.30;;;10.20;99.90;;;;;;7687997;28;20197;-86
2023/03/25 13:44:05;;;;;;;2.30;0.73;;;10.40;99.90;;;;;;7663949;29;20218;-87
2023/03/25 13:48:18;;;;;;;3.73;0.57;;;10.50;99.90;;;;;;7662349;29;20669;-87
2023/03/25 13:52:05;;;;;;;0.60;0.47;;;10.70;99.90;;;;;;7671325;29;20565;-87
2023/03/25 13:56:19;;;;;;;2.23;0.57;;;10.80;99.90;;;;;;7683044;28;20335;-87
2023/03/25 14:00:36;;;;;;;1.10;0.60;;;10.70;99.90;;;;;;7688970;29;20201;-87
2023/03/25 14:04:58;;;;;;;0.70;0.43;;;10.80;99.90;;;;;;7686110;28;20217;-88
2023/03/25 14:08:58;;;;;;;1.13;0.60;;;10.90;99.90;;;;;;7661265;29;20658;-87
2023/03/25 14:12:56;;;;;;;1.70;0.50;;;10.90;99.90;;;;;;7688627;28;20200;-87
2023/03/25 14:16:50;;;;;;;1.73;0.60;;;11.10;99.90;;;;;;7685344;29;20247;-87
2023/03/25 14:20:38;;;;;;;3.63;1.10;;;11.10;99.90;;;;;;7674621;28;20297;-87
2023/03/25 14:24:45;;;;;;;3.13;0.53;;;11.20;99.90;;;;;;7690323;28;20213;-88
2023/03/25 14:28:37;;;;;;;1.60;0.60;;;11.30;99.40;;;;;;7688295;28;20298;-86
2023/03/25 14:32:31;;;;;;;2.00;0.70;;;11.30;99.60;;;;;;7676918;29;20185;-88
2023/03/25 14:36:16;;;;;;;2.53;0.83;;;11.50;98.30;;;;;;7684559;28;20221;-88
2023/03/25 14:40:45;;;;;;;1.77;0.90;;;11.40;97.20;;;;;;7668050;28;20196;-87
2023/03/25 14:44:32;;;;;;;1.97;0.83;;;11.50;96.20;;;;;;7677931;29;20678;-87
2023/03/25 14:48:23;;;;;;;3.43;0.80;;;11.60;95.80;;;;;;7717367;28;20188;-87
2023/03/25 14:52:14;;;;;;;2.03;0.73;;;11.60;97.00;;;;;;7686763;28;20198;-87
2023/03/25 14:56:04;;;;;;;0.80;0.23;;;11.60;95.80;;;;;;7688312;29;20224;-86
2023/03/25 14:59:52;;;;;;;0.63;0.30;;;11.20;99.90;;;;;;7689174;29;20199;-87
2023/03/25 15:03:42;;;;;;;2.07;0.40;;;9.80;99.90;;;;;;7663886;28;20225;-88
2023/03/25 15:07:40;;;;;;;1.07;0.23;;;9.00;99.90;;;;;;7680215;28;20327;-88
2023/03/25 15:11:32;;;;;;;0.17;0.10;;;8.60;99.90;;;;;;7672117;28;20645;-88
2023/03/25 15:15:51;;;;;;;4.07;0.50;;;8.50;99.90;;;;;;7686059;28;20721;-88
2023/03/25 15:20:04;;;;;;;2.07;0.60;;;8.50;99.90;;;;;;7694642;29;20197;-88
2023/03/25 15:23:51;;;;;;;0.40;0.40;;;8.50;99.90;;;;;;7683889;28;20217;-89
2023/03/25 15:27:40;;;;;;;1.03;0.50;;;8.40;99.90;;;;;;7692192;28;20203;-88
2023/03/25 15:32:00;;;;;;;0.90;0.40;;;8.40;99.90;;;;;;7695643;29;20196;-89
2023/03/25 15:36:17;;;;;;;2.03;0.30;;;8.60;99.90;;;;;;7690409;29;20235;-89
2023/03/25 15:40:41;;;;;;;4.07;0.73;;;8.90;99.90;;;;;;7664658;29;20198;-88
2023/03/25 15:44:41;;;;;;;1.00;0.57;;;9.10;99.90;;;;;;7672887;29;20308;-89
2023/03/25 15:48:51;;;;;;;1.73;0.50;;;9.40;99.90;;;;;;7674942;29;20203;-88
2023/03/25 15:53:06;;;;;;;1.10;0.93;;;9.50;99.90;;;;;;7706223;28;20208;-89
2023/03/25 15:56:57;;;;;;;1.10;0.60;;;9.60;99.90;;;;;;7689738;28;20232;-88
2023/03/25 16:00:51;;;;;;;1.50;0.40;;;9.80;99.90;;;;;;7695471;28;20563;-88
2023/03/25 16:04:47;;;;;;;0.90;0.80;;;9.80;99.90;;;;;;7691067;28;20226;-91
2023/03/25 16:08:41;;;;;;;2.00;0.80;;;9.90;99.90;;;;;;7686835;28;20212;-89
2023/03/25 16:12:28;;;;;;;1.00;0.50;;;9.80;99.90;;;;;;7683346;28;20252;-89
2023/03/25 16:16:16;;;;;;;4.40;1.00;;;9.70;99.90;;;;;;7690695;28;20225;-88
2023/03/25 16:20:05;;;;;;;7.07;1.97;;;9.60;99.90;;;;;;7692934;28;20233;-88
2023/03/25 16:23:58;;;;;;;3.50;0.80;;;9.60;99.90;;;;;;7711094;28;20223;-88
2023/03/25 16:27:49;;;;;;;1.73;0.57;;;9.60;99.90;;;;;;7690926;28;20555;-88
2023/03/25 16:31:41;;;;;;;5.13;0.73;;;9.60;99.90;;;;;;7687033;29;20686;-88
2023/03/25 16:35:27;;;;;;;2.93;0.70;;;9.70;99.90;;;;;;7688983;28;20244;-88
2023/03/25 16:39:14;;;;;;;3.80;1.17;;;9.60;99.90;;;;;;7709654;28;20668;-90
2023/03/25 16:43:24;;;;;;;5.13;1.87;;;9.60;99.90;;;;;;7687927;28;20273;-88
2023/03/25 16:47:12;;;;;;;2.60;1.07;;;9.60;99.90;;;;;;7689322;28;20263;-87
2023/03/25 16:51:04;;;;;;;1.77;0.90;;;9.60;99.90;;;;;;7691042;28;20229;-88
2023/03/25 16:54:50;;;;;;;2.63;0.90;;;9.50;99.90;;;;;;7685954;28;20236;-88
2023/03/25 16:58:46;;;;;;;3.20;1.00;;;9.50;99.90;;;;;;7685593;28;20197;-88
2023/03/25 17:02:39;;;;;;;4.73;1.53;;;9.50;99.90;;;;;;7703315;28;20572;-88
2023/03/25 17:06:38;;;;;;;6.53;1.60;;;9.40;99.90;;;;;;7700827;28;20233;-87
2023/03/25 17:10:29;;;;;;;3.37;0.87;;;9.40;99.90;;;;;;7689887;28;20227;-89
2023/03/25 17:14:20;;;;;;;4.20;1.07;;;9.40;99.90;;;;;;7693388;28;20253;-88
2023/03/25 17:18:11;;;;;;;1.30;0.90;;;9.40;99.90;;;;;;7691715;28;20273;-83
2023/03/25 17:22:23;;;;;;;3.40;0.87;;;9.50;99.90;;;;;;7701619;28;20193;-83
2023/03/25 17:26:18;;;;;;;2.40;1.00;;;9.60;99.90;;;;;;7693620;28;20249;-82
2023/03/25 17:30:18;;;;;;;2.33;1.20;;;9.70;99.90;;;;;;7706998;28;20185;-87
2023/03/25 17:34:11;;;;;;;5.07;1.40;;;9.80;99.90;;;;;;7680462;29;20244;-87
2023/03/25 17:37:56;;;;;;;5.47;1.40;;;9.80;99.90;;;;;;7703447;29;20244;-87
2023/03/25 17:41:43;;;;;;;1.60;1.10;;;9.80;99.90;;;;;;7703414;28;20200;-87
2023/03/25 17:45:28;;;;;;;5.57;1.20;;;9.80;99.90;;;;;;7712392;28;20228;-86
2023/03/25 17:49:18;;;;;;;3.72;1.40;;;9.80;99.90;;;;;;7700519;28;20439;-86
2023/03/25 17:53:04;;;;;;;6.67;1.60;;;9.80;99.90;;;;;;7702707;28;20216;-87
2023/03/25 17:56:51;;;;;;;3.97;1.53;;;9.80;99.90;;;;;;7701912;28;20272;-87
2023/03/25 18:00:37;;;;;;;5.80;1.43;;;9.60;99.90;;;;;;7711743;28;20223;-87
2023/03/25 18:04:23;;;;;;;4.23;1.60;;;9.50;99.90;;;;;;7710258;28;20217;-87
2023/03/25 18:08:12;;;;;;;2.50;1.40;;;9.50;99.90;;;;;;7713463;28;20201;-86
2023/03/25 18:11:58;;;;;;;3.70;1.33;;;9.70;99.90;;;;;;7703381;28;20694;-86
2023/03/25 18:15:44;;;;;;;3.37;1.50;;;9.60;99.90;;;;;;7700927;28;20244;-86
2023/03/25 18:19:30;;;;;;;3.67;1.50;;;9.60;99.90;;;;;;7702537;29;20189;-86
2023/03/25 18:23:16;;;;;;;2.80;1.50;;;9.60;99.90;;;;;;7711584;28;20216;-86
2023/03/25 18:27:05;;;;;;;4.60;1.40;;;9.70;99.90;;;;;;7715848;28;20185;-88
2023/03/25 18:30:55;;;;;;;6.13;2.17;;;9.80;99.90;;;;;;7714400;28;20213;-86
2023/03/25 18:34:43;;;;;;;5.47;1.43;;;9.70;99.90;;;;;;7691212;28;20260;-86
2023/03/25 18:38:29;;;;;;;3.77;1.40;;;9.60;99.90;;;;;;7679282;29;20186;-86
2023/03/25 18:42:14;;;;;;;4.63;1.90;;;9.70;99.90;;;;;;7703690;28;20196;-86
2023/03/25 18:46:03;;;;;;;4.03;1.90;;;9.80;99.90;;;;;;7700949;29;20217;-87
2023/03/25 18:49:49;;;;;;;4.47;1.80;;;9.70;99.90;;;;;;7699250;28;20288;-85
2023/03/25 18:53:35;;;;;;;2.73;1.43;;;9.80;99.90;;;;;;7698341;28;20276;-86
2023/03/25 18:57:24;;;;;;;4.50;1.77;;;9.70;99.90;;;;;;7700315;28;20193;-86
2023/03/25 19:01:14;;;;;;;2.67;1.47;;;9.70;99.90;;;;;;7699040;28;20214;-85
2023/03/25 19:04:59;;;;;;;4.00;2.00;;;9.60;99.90;;;;;;7678389;28;20217;-85
2023/03/25 19:08:46;;;;;;;4.50;3.20;;;9.70;99.90;;;;;;7689676;28;20709;-84
2023/03/25 19:12:32;;;;;;;6.37;2.13;;;9.70;99.90;;;;;;7683505;29;20200;-85
2023/03/25 19:16:19;;;;;;;4.27;2.00;;;9.50;99.90;;;;;;7686541;28;20213;-85
2023/03/25 19:20:05;;;;;;;4.60;1.97;;;9.50;99.90;;;;;;7678966;28;20328;-84
2023/03/25 19:23:51;;;;;;;3.13;1.90;;;9.40;99.90;;;;;;7681338;28;20221;-86
2023/03/25 19:27:37;;;;;;;3.13;2.03;;;9.40;99.90;;;;;;7697273;28;20203;-84
2023/03/25 19:31:23;;;;;;;2.33;1.60;;;9.40;99.90;;;;;;7701534;28;20189;-85
2023/03/25 19:35:10;;;;;;;6.10;2.27;;;9.40;99.90;;;;;;7683745;28;20220;-85
2023/03/25 19:38:57;;;;;;;5.57;3.03;;;9.30;99.90;;;;;;7677387;28;20225;-86
2023/03/25 19:42:43;;;;;;;5.10;2.07;;;9.30;99.90;;;;;;7685796;28;20194;-86
2023/03/25 19:46:30;;;;;;;4.73;1.70;;;9.30;99.90;;;;;;7684872;28;20271;-85
2023/03/25 19:50:19;;;;;;;2.70;1.33;;;9.30;99.90;;;;;;7692174;28;20545;-86
2023/03/25 19:54:05;;;;;;;1.90;1.33;;;9.30;99.90;;;;;;7681172;28;20267;-84
2023/03/25 19:57:50;;;;;;;1.63;0.90;;;9.40;99.90;;;;;;7689679;28;20194;-86
2023/03/25 20:01:36;;;;;;;4.33;1.43;;;9.30;99.90;;;;;;7692294;28;20192;-86
2023/03/25 20:05:23;;;;;;;4.90;1.10;;;9.30;99.90;;;;;;7683082;28;20213;-85
2023/03/25 20:09:09;;;;;;;5.37;1.07;;;9.30;99.90;;;;;;7703300;28;20204;-86
2023/03/25 20:12:56;;;;;;;0.90;0.70;;;9.20;99.90;;;;;;7689440;28;20197;-85
2023/03/25 20:16:42;;;;;;;2.13;0.90;;;9.10;99.90;;;;;;7715668;28;20213;-84
2023/03/25 20:20:27;;;;;;;1.27;0.40;;;9.00;99.90;;;;;;7716412;28;20189;-85
2023/03/25 20:24:13;;;;;;;1.83;0.93;;;8.90;99.90;;;;;;7694575;28;20217;-85
2023/03/25 20:27:59;;;;;;;3.27;1.00;;;8.80;99.90;;;;;;7694305;28;20655;-85
2023/03/25 20:31:45;;;;;;;1.70;0.90;;;8.90;99.90;;;;;;7676690;28;20228;-85
2023/03/25 20:35:33;;;;;;;3.20;0.70;;;8.90;99.90;;;;;;7692055;28;20233;-86
2023/03/25 20:39:21;;;;;;;1.73;0.70;;;8.90;99.90;;;;;;7687431;29;20220;-84
2023/03/25 20:43:07;;;;;;;1.37;0.73;;;8.80;99.90;;;;;;7682448;29;20302;-84
2023/03/25 20:46:53;;;;;;;2.50;0.70;;;8.80;99.90;;;;;;7675196;28;20197;-85
2023/03/25 20:50:39;;;;;;;2.67;0.57;;;8.80;99.90;;;;;;7678534;28;20211;-87
2023/03/25 20:54:26;;;;;;;9.90;4.33;;;8.70;99.90;;;;;;7686817;28;20356;-85
2023/03/25 20:58:12;;;;;;;3.07;0.80;;;8.70;99.90;;;;;;7681041;29;20182;-84
2023/03/25 21:01:58;;;;;;;1.03;0.70;;;8.60;99.90;;;;;;7685723;28;20185;-85
2023/03/25 21:05:44;;;;;;;1.20;0.77;;;8.50;99.90;;;;;;7683102;28;20703;-85
2023/03/25 21:09:30;;;;;;;2.97;0.60;;;8.40;99.90;;;;;;7677164;28;20201;-85
2023/03/25 21:13:16;;;;;;;2.03;0.70;;;8.30;99.90;;;;;;7680555;28;20256;-86
2023/03/25 21:17:01;;;;;;;2.13;0.77;;;8.30;99.90;;;;;;7689912;28;20378;-85
2023/03/25 21:20:49;;;;;;;2.97;1.37;;;8.10;99.90;;;;;;7684653;28;20197;-85
2023/03/25 21:24:34;;;;;;;2.50;0.90;;;8.00;99.90;;;;;;7682197;28;20868;-85
2023/03/25 21:28:20;;;;;;;5.63;0.90;;;8.10;99.90;;;;;;7677496;28;20202;-85
2023/03/25 21:32:06;;;;;;;1.53;0.70;;;8.10;99.90;;;;;;7679832;28;20193;-87
2023/03/25 21:35:52;;;;;;;2.93;0.90;;;8.20;99.90;;;;;;7675877;28;20225;-85
2023/03/25 21:39:37;;;;;;;3.50;1.03;;;8.20;99.90;;;;;;7674385;28;20746;-86
2023/03/25 21:43:23;;;;;;;1.67;0.77;;;8.20;99.90;;;;;;7684777;28;20234;-87
2023/03/25 21:47:09;;;;;;;4.83;1.90;;;8.30;99.90;;;;;;7680334;28;20200;-85
2023/03/25 21:50:57;;;;;;;10.40;3.77;;;8.20;99.90;;;;;;7682182;28;20317;-85
2023/03/25 21:54:43;;;;;;;6.90;2.27;;;8.30;99.90;;;;;;7682642;28;20216;-85
2023/03/25 21:58:31;;;;;;;10.90;4.00;;;8.20;99.90;;;;;;7673700;29;20182;-84
2023/03/25 22:02:17;;;;;;;6.37;3.13;;;8.30;99.90;;;;;;7684917;28;20185;-85
2023/03/25 22:06:08;;;;;;;6.07;1.30;;;8.20;99.90;;;;;;7696944;28;20207;-84
2023/03/25 22:09:54;;;;;;;4.57;1.20;;;8.30;99.90;;;;;;7701797;28;20703;-86
2023/03/25 22:13:40;;;;;;;4.13;1.00;;;8.30;99.90;;;;;;7688637;28;20650;-86
2023/03/25 22:17:26;;;;;;;3.97;1.00;;;8.30;99.90;;;;;;7699224;28;20703;-86
2023/03/25 22:21:19;;;;;;;3.17;1.30;;;8.40;99.90;;;;;;7685024;28;20562;-85
2023/03/25 22:25:05;;;;;;;2.97;1.10;;;8.40;99.90;;;;;;7686548;28;20220;-86
2023/03/25 22:28:57;;;;;;;3.67;0.97;;;8.40;99.90;;;;;;7710593;28;20220;-86